createdAt,value
2022-08-24T00:00:52.818Z,87.60
2022-08-24T00:01:53.206Z,87.75
2022-08-24T00:02:53.576Z,87.71
2022-08-24T00:03:55.470Z,87.60
2022-08-24T00:04:54.128Z,87.60
2022-08-24T00:05:54.448Z,87.71
2022-08-24T00:06:54.778Z,87.81
2022-08-24T00:07:55.118Z,87.71
2022-08-24T00:08:55.446Z,87.71
2022-08-24T00:09:55.791Z,87.71
2022-08-24T00:10:56.129Z,87.81
2022-08-24T00:11:56.442Z,87.81
2022-08-24T00:12:56.790Z,87.91
2022-08-24T00:13:57.110Z,87.91
2022-08-24T00:14:57.435Z,88.01
2022-08-24T00:15:57.761Z,88.11
2022-08-24T00:16:58.150Z,88.21
2022-08-24T00:17:58.414Z,88.21
2022-08-24T00:18:58.743Z,88.31
2022-08-24T00:19:59.064Z,88.41
2022-08-24T00:20:59.406Z,88.31
2022-08-24T00:21:59.735Z,88.41
2022-08-24T00:23:00.077Z,88.41
2022-08-24T00:24:00.398Z,88.61
2022-08-24T00:25:00.671Z,88.61
2022-08-24T00:26:00.998Z,88.71
2022-08-24T00:27:01.338Z,88.61
2022-08-24T00:28:01.805Z,88.71
2022-08-24T00:29:06.794Z,88.71
2022-08-24T00:30:03.268Z,88.61
2022-08-24T00:31:02.548Z,88.51
2022-08-24T00:32:02.921Z,88.41
2022-08-24T00:33:03.135Z,88.51
2022-08-24T00:34:03.456Z,88.61
2022-08-24T00:35:03.780Z,88.71
2022-08-24T00:36:05.025Z,88.61
2022-08-24T00:37:04.440Z,88.61
2022-08-24T00:38:05.133Z,88.71
2022-08-24T00:39:05.099Z,88.71
2022-08-24T00:40:05.487Z,88.81
2022-08-24T00:41:05.715Z,88.81
2022-08-24T00:42:06.040Z,88.81
2022-08-24T00:43:06.385Z,88.91
2022-08-24T00:44:06.697Z,88.91
2022-08-24T00:45:07.024Z,89.01
2022-08-24T00:46:07.431Z,89.01
2022-08-24T00:47:07.645Z,89.01
2022-08-24T00:48:08.003Z,89.01
2022-08-24T00:49:08.226Z,89.11
2022-08-24T00:50:08.536Z,89.11
2022-08-24T00:51:08.878Z,89.01
2022-08-24T00:52:09.155Z,89.01
2022-08-24T00:53:09.498Z,89.11
2022-08-24T00:54:09.825Z,89.01
2022-08-24T00:55:10.156Z,89.01
2022-08-24T00:56:10.494Z,89.11
2022-08-24T00:57:10.820Z,89.01
2022-08-24T00:58:17.005Z,89.01
2022-08-24T00:59:12.480Z,89.01
2022-08-24T01:00:11.749Z,89.01
2022-08-24T01:01:12.144Z,89.22
2022-08-24T01:02:15.620Z,89.11
2022-08-24T01:03:12.621Z,89.22
2022-08-24T01:04:12.942Z,89.11
2022-08-24T01:05:13.291Z,89.11
2022-08-24T01:06:13.611Z,88.91
2022-08-24T01:07:13.942Z,89.01
2022-08-24T01:08:14.292Z,89.01
2022-08-24T01:09:14.506Z,89.01
2022-08-24T01:10:14.805Z,89.01
2022-08-24T01:11:15.103Z,89.01
2022-08-24T01:12:15.442Z,88.91
2022-08-24T01:13:15.809Z,88.81
2022-08-24T01:14:16.004Z,88.91
2022-08-24T01:15:16.344Z,88.91
2022-08-24T01:16:16.733Z,88.91
2022-08-24T01:17:16.936Z,89.01
2022-08-24T01:18:17.288Z,89.22
2022-08-24T01:19:17.626Z,89.31
2022-08-24T01:20:17.956Z,89.11
2022-08-24T01:21:18.286Z,89.11
2022-08-24T01:22:18.609Z,89.22
2022-08-24T01:23:18.971Z,89.42
2022-08-24T01:24:19.171Z,89.42
2022-08-24T01:25:19.509Z,89.51
2022-08-24T01:26:19.779Z,89.22
2022-08-24T01:27:23.907Z,89.22
2022-08-24T01:28:21.748Z,89.22
2022-08-24T01:29:23.728Z,89.22
2022-08-24T01:30:30.706Z,89.11
2022-08-24T01:31:22.377Z,89.22
2022-08-24T01:32:21.540Z,89.22
2022-08-24T01:33:21.883Z,89.11
2022-08-24T01:34:22.203Z,89.11
2022-08-24T01:35:22.530Z,88.91
2022-08-24T01:36:28.384Z,89.01
2022-08-24T01:37:24.187Z,89.01
2022-08-24T01:38:23.465Z,88.91
2022-08-24T01:39:23.783Z,88.91
2022-08-24T01:40:24.138Z,88.81
2022-08-24T01:41:28.382Z,88.81
2022-08-24T01:42:24.776Z,88.81
2022-08-24T01:43:25.127Z,89.01
2022-08-24T01:44:25.450Z,88.81
2022-08-24T01:45:25.776Z,88.81
2022-08-24T01:46:26.144Z,88.81
2022-08-24T01:47:26.365Z,88.81
2022-08-24T01:48:26.707Z,88.81
2022-08-24T01:49:27.030Z,88.91
2022-08-24T01:50:27.352Z,88.81
2022-08-24T01:51:27.680Z,88.91
2022-08-24T01:52:38.910Z,89.01
2022-08-24T01:53:29.320Z,89.01
2022-08-24T01:54:28.578Z,88.91
2022-08-24T01:55:28.911Z,88.81
2022-08-24T01:56:29.249Z,88.91
2022-08-24T01:57:29.474Z,88.91
2022-08-24T01:58:29.805Z,89.01
2022-08-24T01:59:30.129Z,89.01
2022-08-24T02:00:30.455Z,89.11
2022-08-24T02:01:30.814Z,89.11
2022-08-24T02:02:31.182Z,89.11
2022-08-24T02:03:31.435Z,89.22
2022-08-24T02:04:31.625Z,89.22
2022-08-24T02:05:31.945Z,89.31
2022-08-24T02:06:32.277Z,89.11
2022-08-24T02:07:32.617Z,89.11
2022-08-24T02:08:32.963Z,89.22
2022-08-24T02:09:33.276Z,89.22
2022-08-24T02:10:33.611Z,89.11
2022-08-24T02:11:33.937Z,89.11
2022-08-24T02:12:34.267Z,89.01
2022-08-24T02:13:34.607Z,89.11
2022-08-24T02:14:34.925Z,89.11
2022-08-24T02:15:35.312Z,89.22
2022-08-24T02:16:35.493Z,89.31
2022-08-24T02:17:35.828Z,89.22
2022-08-24T02:18:36.140Z,89.31
2022-08-24T02:19:36.472Z,89.42
2022-08-24T02:20:36.791Z,89.31
2022-08-24T02:21:37.122Z,89.42
2022-08-24T02:22:37.420Z,89.42
2022-08-24T02:23:37.740Z,89.62
2022-08-24T02:24:38.075Z,89.72
2022-08-24T02:25:38.399Z,89.62
2022-08-24T02:26:38.720Z,89.72
2022-08-24T02:27:39.054Z,89.72
2022-08-24T02:28:39.313Z,89.72
2022-08-24T02:29:39.647Z,89.82
2022-08-24T02:30:40.077Z,89.82
2022-08-24T02:31:40.309Z,89.72
2022-08-24T02:32:40.684Z,89.62
2022-08-24T02:33:40.892Z,89.72
2022-08-24T02:34:41.223Z,89.72
2022-08-24T02:35:41.556Z,89.62
2022-08-24T02:36:41.898Z,89.72
2022-08-24T02:37:43.512Z,89.72
2022-08-24T02:38:42.486Z,89.72
2022-08-24T02:39:42.852Z,89.72
2022-08-24T02:40:43.065Z,89.51
2022-08-24T02:41:43.388Z,89.51
2022-08-24T02:42:43.729Z,89.62
2022-08-24T02:43:44.059Z,89.62
2022-08-24T02:44:44.399Z,89.42
2022-08-24T02:45:49.596Z,89.42
2022-08-24T02:46:46.067Z,89.42
2022-08-24T02:47:45.349Z,89.51
2022-08-24T02:48:45.680Z,89.42
2022-08-24T02:49:45.991Z,89.51
2022-08-24T02:50:46.323Z,89.42
2022-08-24T02:51:46.641Z,89.31
2022-08-24T02:52:46.984Z,89.31
2022-08-24T02:53:47.304Z,89.42
2022-08-24T02:54:47.642Z,89.42
2022-08-24T02:55:47.958Z,89.51
2022-08-24T02:56:48.290Z,89.42
2022-08-24T02:57:48.630Z,89.42
2022-08-24T02:58:48.954Z,89.42
2022-08-24T02:59:49.285Z,89.51
2022-08-24T03:00:49.623Z,89.51
2022-08-24T03:01:50.335Z,89.51
2022-08-24T03:02:50.243Z,89.51
2022-08-24T03:03:50.464Z,89.51
2022-08-24T03:04:50.798Z,89.51
2022-08-24T03:05:51.129Z,89.51
2022-08-24T03:06:51.456Z,89.62
2022-08-24T03:07:52.384Z,89.62
2022-08-24T03:08:56.682Z,89.51
2022-08-24T03:09:52.339Z,89.62
2022-08-24T03:10:52.670Z,89.31
2022-08-24T03:11:53.015Z,89.31
2022-08-24T03:12:53.331Z,89.22
2022-08-24T03:15:10.112Z,89.42
2022-08-24T03:16:10.429Z,89.51
2022-08-24T03:17:10.692Z,89.62
2022-08-24T03:18:10.979Z,89.76
2022-08-24T03:19:11.184Z,89.86
2022-08-24T03:20:11.513Z,89.76
2022-08-24T03:21:11.941Z,89.66
2022-08-24T03:22:12.165Z,89.66
2022-08-24T03:23:12.535Z,89.76
2022-08-24T03:24:12.795Z,89.76
2022-08-24T03:25:13.013Z,90.06
2022-08-24T03:26:13.300Z,89.86
2022-08-24T03:27:13.514Z,90.16
2022-08-24T03:28:13.944Z,90.06
2022-08-24T03:29:14.147Z,90.06
2022-08-24T03:30:14.486Z,90.06
2022-08-24T03:31:14.895Z,90.16
2022-08-24T03:32:15.157Z,90.16
2022-08-24T03:33:15.409Z,90.16
2022-08-24T03:34:15.650Z,90.16
2022-08-24T03:35:15.860Z,90.16
2022-08-24T03:36:16.210Z,90.16
2022-08-24T03:37:16.542Z,90.16
2022-08-24T03:38:16.884Z,90.06
2022-08-24T03:39:17.233Z,90.06
2022-08-24T03:40:23.082Z,90.16
2022-08-24T03:41:18.750Z,90.26
2022-08-24T03:42:18.068Z,90.06
2022-08-24T03:43:18.355Z,90.06
2022-08-24T03:44:22.943Z,90.06
2022-08-24T03:45:18.943Z,90.06
2022-08-24T03:46:19.247Z,89.96
2022-08-24T03:47:19.503Z,89.86
2022-08-24T03:48:19.862Z,89.86
2022-08-24T03:49:20.086Z,89.86
2022-08-24T03:50:20.427Z,89.86
2022-08-24T03:51:20.787Z,89.86
2022-08-24T03:52:21.132Z,89.86
2022-08-24T03:53:21.398Z,89.96
2022-08-24T03:54:21.621Z,89.96
2022-08-24T03:55:21.968Z,90.06
2022-08-24T03:56:22.204Z,89.96
2022-08-24T03:57:22.552Z,89.76
2022-08-24T03:58:22.801Z,89.66
2022-08-24T03:59:23.170Z,89.56
2022-08-24T04:00:23.452Z,89.56
2022-08-24T04:01:23.755Z,89.56
2022-08-24T04:02:24.152Z,89.56
2022-08-24T04:03:24.401Z,89.66
2022-08-24T04:04:24.631Z,89.76
2022-08-24T04:05:24.876Z,89.76
2022-08-24T04:06:25.124Z,89.86
2022-08-24T04:07:25.394Z,89.86
2022-08-24T04:08:25.671Z,89.86
2022-08-24T04:09:25.923Z,90.06
2022-08-24T04:10:26.243Z,89.96
2022-08-24T04:11:26.499Z,89.96
2022-08-24T04:12:26.796Z,90.26
2022-08-24T04:13:27.085Z,90.26
2022-08-24T04:14:28.043Z,90.26
2022-08-24T04:15:27.615Z,90.46
2022-08-24T04:16:27.880Z,90.56
2022-08-24T04:17:28.127Z,90.56
2022-08-24T04:18:28.895Z,90.66
2022-08-24T04:19:28.667Z,90.66
2022-08-24T04:20:28.907Z,90.56
2022-08-24T04:21:29.178Z,90.77
2022-08-24T04:22:29.421Z,90.86
2022-08-24T04:23:47.236Z,90.86
2022-08-24T04:24:31.009Z,90.77
2022-08-24T04:25:30.272Z,90.97
2022-08-24T04:26:44.571Z,91.06
2022-08-24T04:27:31.868Z,90.97
2022-08-24T04:28:31.224Z,90.86
2022-08-24T04:29:31.472Z,90.97
2022-08-24T04:30:31.744Z,90.97
2022-08-24T04:31:32.102Z,90.86
2022-08-24T04:32:32.349Z,90.86
2022-08-24T04:33:32.614Z,90.97
2022-08-24T04:34:32.843Z,90.77
2022-08-24T04:35:33.093Z,90.56
2022-08-24T04:36:33.341Z,90.46
2022-08-24T04:37:33.665Z,90.56
2022-08-24T04:38:33.934Z,90.56
2022-08-24T04:39:34.235Z,90.46
2022-08-24T04:40:34.484Z,90.32
2022-08-24T04:41:34.808Z,90.32
2022-08-24T04:42:35.128Z,90.32
2022-08-24T04:43:35.404Z,90.32
2022-08-24T04:44:35.709Z,90.42
2022-08-24T04:45:36.120Z,90.42
2022-08-24T04:46:36.254Z,90.32
2022-08-24T04:47:36.558Z,90.42
2022-08-24T04:48:36.831Z,90.42
2022-08-24T04:49:37.091Z,90.32
2022-08-24T04:50:37.370Z,90.32
2022-08-24T04:51:37.635Z,90.32
2022-08-24T04:52:37.922Z,90.52
2022-08-24T04:53:38.235Z,90.52
2022-08-24T04:54:38.480Z,90.62
2022-08-24T04:55:38.734Z,90.72
2022-08-24T04:56:39.007Z,90.72
2022-08-24T04:57:39.284Z,90.82
2022-08-24T04:58:39.531Z,90.92
2022-08-24T04:59:39.899Z,90.72
2022-08-24T05:00:40.240Z,90.72
2022-08-24T05:01:40.691Z,90.82
2022-08-24T05:02:44.677Z,90.82
2022-08-24T05:03:41.227Z,90.92
2022-08-24T05:04:41.375Z,90.82
2022-08-24T05:05:41.667Z,90.82
2022-08-24T05:06:41.918Z,90.92
2022-08-24T05:07:42.198Z,90.82
2022-08-24T05:08:42.470Z,90.82
2022-08-24T05:09:42.798Z,90.82
2022-08-24T05:10:43.066Z,90.92
2022-08-24T05:11:49.613Z,90.88
2022-08-24T05:12:44.683Z,90.88
2022-08-24T05:13:43.994Z,90.88
2022-08-24T05:14:44.252Z,91.08
2022-08-24T05:15:44.492Z,90.88
2022-08-24T05:16:45.737Z,90.98
2022-08-24T05:17:50.954Z,91.08
2022-08-24T05:18:46.353Z,91.08
2022-08-24T05:19:45.683Z,91.18
2022-08-24T05:20:45.944Z,91.08
2022-08-24T05:21:46.278Z,90.98
2022-08-24T05:22:46.631Z,91.08
2022-08-24T05:23:46.758Z,91.08
2022-08-24T05:24:47.383Z,90.98
2022-08-24T05:25:47.355Z,90.88
2022-08-24T05:26:47.644Z,90.73
2022-08-24T05:27:47.909Z,90.84
2022-08-24T05:28:48.218Z,90.84
2022-08-24T05:29:48.497Z,90.73
2022-08-24T05:30:51.055Z,90.84
2022-08-24T05:31:49.181Z,90.84
2022-08-24T05:32:50.369Z,90.94
2022-08-24T05:33:49.681Z,90.94
2022-08-24T05:34:49.934Z,91.03
2022-08-24T05:35:50.197Z,91.14
2022-08-24T05:36:50.459Z,91.14
2022-08-24T05:37:50.740Z,91.14
2022-08-24T05:38:51.023Z,91.14
2022-08-24T05:39:51.802Z,91.24
2022-08-24T05:40:51.543Z,91.24
2022-08-24T05:41:51.822Z,91.24
2022-08-24T05:42:52.082Z,91.24
2022-08-24T05:43:52.323Z,91.44
2022-08-24T05:44:52.585Z,91.34
2022-08-24T05:45:52.858Z,91.34
2022-08-24T05:46:53.194Z,91.54
2022-08-24T05:47:53.476Z,91.64
2022-08-24T05:48:53.721Z,91.54
2022-08-24T05:49:53.976Z,91.54
2022-08-24T05:50:54.257Z,91.64
2022-08-24T05:51:54.527Z,91.74
2022-08-24T05:52:54.798Z,91.64
2022-08-24T05:53:55.064Z,91.54
2022-08-24T05:54:55.319Z,91.54
2022-08-24T05:55:55.579Z,91.64
2022-08-24T05:56:55.839Z,91.69
2022-08-24T05:57:56.109Z,91.64
2022-08-24T05:58:56.360Z,91.74
2022-08-24T05:59:56.612Z,91.60
2022-08-24T06:00:56.871Z,91.60
2022-08-24T06:01:57.257Z,91.60
2022-08-24T06:02:57.558Z,91.60
2022-08-24T06:03:57.874Z,91.60
2022-08-24T06:04:58.130Z,91.60
2022-08-24T06:05:58.541Z,91.74
2022-08-24T06:06:58.592Z,91.74
2022-08-24T06:07:58.964Z,91.84
2022-08-24T06:08:59.111Z,91.89
2022-08-24T06:10:14.733Z,91.84
2022-08-24T06:11:00.706Z,91.94
2022-08-24T06:12:00.036Z,92.04
2022-08-24T06:13:00.396Z,92.04
2022-08-24T06:14:00.538Z,92.00
2022-08-24T06:15:00.785Z,91.89
2022-08-24T06:16:20.346Z,92.00
2022-08-24T06:17:02.506Z,92.00
2022-08-24T06:18:01.670Z,92.00
2022-08-24T06:19:01.911Z,91.89
2022-08-24T06:20:02.189Z,92.00
2022-08-24T06:21:02.438Z,91.89
2022-08-24T06:22:02.694Z,91.89
2022-08-24T06:23:03.145Z,91.80
2022-08-24T06:24:03.303Z,91.69
2022-08-24T06:25:03.560Z,91.60
2022-08-24T06:26:03.832Z,91.60
2022-08-24T06:27:04.111Z,91.50
2022-08-24T06:28:04.386Z,91.50
2022-08-24T06:29:04.654Z,91.50
2022-08-24T06:30:04.929Z,91.35
2022-08-24T06:31:05.257Z,91.35
2022-08-24T06:32:05.530Z,91.25
2022-08-24T06:33:05.992Z,91.15
2022-08-24T06:34:06.109Z,91.15
2022-08-24T06:35:06.404Z,91.15
2022-08-24T06:36:06.657Z,90.95
2022-08-24T06:37:06.987Z,90.95
2022-08-24T06:38:07.269Z,90.95
2022-08-24T06:39:07.529Z,90.85
2022-08-24T06:40:07.805Z,90.75
2022-08-24T06:41:08.099Z,90.85
2022-08-24T06:42:08.377Z,90.75
2022-08-24T06:43:08.651Z,90.75
2022-08-24T06:44:08.940Z,90.85
2022-08-24T06:45:09.248Z,90.85
2022-08-24T06:46:09.537Z,90.75
2022-08-24T06:47:09.892Z,90.75
2022-08-24T06:48:10.102Z,90.85
2022-08-24T06:49:10.353Z,90.75
2022-08-24T06:50:10.633Z,90.75
2022-08-24T06:51:10.950Z,90.75
2022-08-24T06:52:11.196Z,90.85
2022-08-24T06:53:11.565Z,90.85
2022-08-24T06:54:11.685Z,90.75
2022-08-24T06:55:11.993Z,90.75
2022-08-24T06:56:12.267Z,90.65
2022-08-24T06:57:12.532Z,90.65
2022-08-24T06:58:12.826Z,90.65
2022-08-24T06:59:13.167Z,90.65
2022-08-24T07:00:13.462Z,90.55
2022-08-24T07:01:13.827Z,90.61
2022-08-24T07:02:16.978Z,90.41
2022-08-24T07:03:14.263Z,90.50
2022-08-24T07:04:14.436Z,90.41
2022-08-24T07:05:14.720Z,90.45
2022-08-24T07:06:15.009Z,90.41
2022-08-24T07:07:15.271Z,90.41
2022-08-24T07:08:15.582Z,90.45
2022-08-24T07:09:15.870Z,90.41
2022-08-24T07:10:16.129Z,90.41
2022-08-24T07:11:16.430Z,90.41
2022-08-24T07:12:16.712Z,90.50
2022-08-24T07:13:17.019Z,90.41
2022-08-24T07:14:17.363Z,90.41
2022-08-24T07:15:17.634Z,90.31
2022-08-24T07:16:17.968Z,90.41
2022-08-24T07:17:18.196Z,90.41
2022-08-24T07:18:19.586Z,90.50
2022-08-24T07:19:18.813Z,90.50
2022-08-24T07:20:19.127Z,90.41
2022-08-24T07:21:19.735Z,90.41
2022-08-24T07:22:19.741Z,90.31
2022-08-24T07:23:20.029Z,90.31
2022-08-24T07:24:20.309Z,90.41
2022-08-24T07:25:20.616Z,90.41
2022-08-24T07:26:22.315Z,90.41
2022-08-24T07:27:21.290Z,90.31
2022-08-24T07:28:31.677Z,90.20
2022-08-24T07:29:46.317Z,90.20
2022-08-24T07:30:27.406Z,90.31
2022-08-24T07:31:22.342Z,90.31
2022-08-24T07:32:22.512Z,90.31
2022-08-24T07:33:22.833Z,90.20
2022-08-24T07:34:23.107Z,90.20
2022-08-24T07:35:23.403Z,90.11
2022-08-24T07:36:23.674Z,90.11
2022-08-24T07:37:23.974Z,90.20
2022-08-24T07:38:24.277Z,90.31
2022-08-24T07:39:24.554Z,90.20
2022-08-24T07:40:24.891Z,90.11
2022-08-24T07:41:56.845Z,90.11
2022-08-24T07:42:31.789Z,90.11
2022-08-24T07:43:26.767Z,90.11
2022-08-24T07:44:26.095Z,90.20
2022-08-24T07:45:26.382Z,90.31
2022-08-24T07:46:26.727Z,90.31
2022-08-24T07:47:38.057Z,90.31
2022-08-24T07:48:28.180Z,90.11
2022-08-24T07:49:36.424Z,90.20
2022-08-24T07:50:28.744Z,90.20
2022-08-24T07:51:28.122Z,90.31
2022-08-24T07:52:28.399Z,90.31
2022-08-24T07:53:37.923Z,90.41
2022-08-24T07:54:29.937Z,90.31
2022-08-24T07:55:29.316Z,90.31
2022-08-24T07:56:29.610Z,90.31
2022-08-24T07:57:30.011Z,90.31
2022-08-24T07:58:30.172Z,90.20
2022-08-24T07:59:30.502Z,90.11
2022-08-24T08:00:30.780Z,90.11
2022-08-24T08:01:31.223Z,90.11
2022-08-24T08:02:36.420Z,90.11
2022-08-24T08:03:32.585Z,90.11
2022-08-24T08:04:31.933Z,90.00
2022-08-24T08:05:32.248Z,90.00
2022-08-24T08:06:33.273Z,90.00
2022-08-24T08:07:32.750Z,89.90
2022-08-24T08:08:33.016Z,90.00
2022-08-24T08:09:33.399Z,90.00
2022-08-24T08:10:33.527Z,89.90
2022-08-24T08:11:34.755Z,89.90
2022-08-24T08:12:34.120Z,89.81
2022-08-24T08:13:34.428Z,89.90
2022-08-24T08:14:34.598Z,89.81
2022-08-24T08:15:35.643Z,89.86
2022-08-24T08:16:35.899Z,89.70
2022-08-24T08:17:35.458Z,89.66
2022-08-24T08:18:36.401Z,89.66
2022-08-24T08:19:36.437Z,89.66
2022-08-24T08:20:36.170Z,89.46
2022-08-24T08:21:36.501Z,89.46
2022-08-24T08:22:36.812Z,89.46
2022-08-24T08:23:37.082Z,89.46
2022-08-24T08:24:37.372Z,89.16
2022-08-24T08:25:37.674Z,89.06
2022-08-24T08:26:37.948Z,89.06
2022-08-24T08:27:38.307Z,89.06
2022-08-24T08:28:38.750Z,88.92
2022-08-24T08:29:38.753Z,88.92
2022-08-24T08:30:39.094Z,88.82
2022-08-24T08:31:39.276Z,88.71
2022-08-24T08:32:39.567Z,88.62
2022-08-24T08:33:39.846Z,88.52
2022-08-24T08:34:40.127Z,88.42
2022-08-24T08:35:40.407Z,88.32
2022-08-24T08:36:40.685Z,88.02
2022-08-24T08:37:40.994Z,88.02
2022-08-24T08:38:41.277Z,88.02
2022-08-24T08:39:41.570Z,87.77
2022-08-24T08:40:41.860Z,87.77
2022-08-24T08:41:42.140Z,87.77
2022-08-24T08:42:42.441Z,87.68
2022-08-24T08:43:42.723Z,87.68
2022-08-24T08:44:43.001Z,87.57
2022-08-24T08:45:43.317Z,87.37
2022-08-24T08:46:43.610Z,87.48
2022-08-24T08:47:43.939Z,87.27
2022-08-24T08:48:44.256Z,87.27
2022-08-24T08:49:44.601Z,87.13
2022-08-24T08:50:44.876Z,86.83
2022-08-24T08:51:45.237Z,86.53
2022-08-24T08:52:45.394Z,86.53
2022-08-24T08:53:45.687Z,86.43
2022-08-24T08:54:45.980Z,86.43
2022-08-24T08:55:46.600Z,86.63
2022-08-24T08:56:46.637Z,86.53
2022-08-24T08:57:46.926Z,86.63
2022-08-24T08:58:57.701Z,86.53
2022-08-24T08:59:48.558Z,86.23
2022-08-24T09:00:47.950Z,86.13
2022-08-24T09:01:48.301Z,86.13
2022-08-24T09:02:48.526Z,86.09
2022-08-24T09:03:48.731Z,85.99
2022-08-24T09:04:49.179Z,86.09
2022-08-24T09:05:49.316Z,85.89
2022-08-24T09:06:49.591Z,85.69
2022-08-24T09:07:49.913Z,85.49
2022-08-24T09:08:51.881Z,85.45
2022-08-24T09:09:50.513Z,85.35
2022-08-24T09:10:50.785Z,85.19
2022-08-24T09:11:51.089Z,85.09
2022-08-24T09:12:52.106Z,85.09
2022-08-24T09:13:59.158Z,85.29
2022-08-24T09:14:51.865Z,85.29
2022-08-24T09:15:57.553Z,85.29
2022-08-24T09:16:53.578Z,85.29
2022-08-24T09:17:52.781Z,85.09
2022-08-24T09:18:53.027Z,84.99
2022-08-24T09:19:53.309Z,85.05
2022-08-24T09:20:53.564Z,85.15
2022-08-24T09:21:54.462Z,85.15
2022-08-24T09:22:54.049Z,84.95
2022-08-24T09:23:54.321Z,84.85
2022-08-24T09:24:54.588Z,84.85
2022-08-24T09:25:54.842Z,84.65
2022-08-24T09:26:55.162Z,84.65
2022-08-24T09:27:55.441Z,84.45
2022-08-24T09:28:55.712Z,84.65
2022-08-24T09:29:55.954Z,84.45
2022-08-24T09:30:56.262Z,84.15
2022-08-24T09:31:56.553Z,83.85
2022-08-24T09:32:56.794Z,83.95
2022-08-24T09:33:57.087Z,84.01
2022-08-24T09:34:57.305Z,84.11
2022-08-24T09:35:57.591Z,84.11
2022-08-24T09:36:57.875Z,84.01
2022-08-24T09:37:58.117Z,83.61
2022-08-24T09:38:58.360Z,83.61
2022-08-24T09:39:58.766Z,83.31
2022-08-24T09:40:58.940Z,83.01
2022-08-24T09:41:59.235Z,83.01
2022-08-24T09:42:59.496Z,82.81
2022-08-24T09:44:03.278Z,82.61
2022-08-24T09:45:00.067Z,82.57
2022-08-24T09:46:00.402Z,82.67
2022-08-24T09:47:00.675Z,82.57
2022-08-24T09:48:00.940Z,82.67
2022-08-24T09:49:01.210Z,82.97
2022-08-24T09:50:01.471Z,82.87
2022-08-24T09:51:01.732Z,82.28
2022-08-24T09:52:01.981Z,82.37
2022-08-24T09:53:02.282Z,82.37
2022-08-24T09:54:02.562Z,82.37
2022-08-24T09:55:02.784Z,82.23
2022-08-24T09:56:03.053Z,81.93
2022-08-24T09:57:12.412Z,81.54
2022-08-24T09:58:04.637Z,81.54
2022-08-24T09:59:03.955Z,81.63
2022-08-24T10:00:04.237Z,81.34
2022-08-24T10:01:04.566Z,81.10
2022-08-24T10:02:04.842Z,80.70
2022-08-24T10:03:05.115Z,81.10
2022-08-24T10:04:05.399Z,81.10
2022-08-24T10:05:05.815Z,81.20
2022-08-24T10:06:06.072Z,81.06
2022-08-24T10:07:06.159Z,80.36
2022-08-24T10:08:06.503Z,79.76
2022-08-24T10:09:06.769Z,79.76
2022-08-24T10:10:07.063Z,80.02
2022-08-24T10:11:07.351Z,80.12
2022-08-24T10:12:07.624Z,79.33
2022-08-24T10:13:07.903Z,78.83
2022-08-24T10:14:08.173Z,78.73
2022-08-24T10:15:08.578Z,79.22
2022-08-24T10:16:08.840Z,78.99
2022-08-24T10:17:09.164Z,79.09
2022-08-24T10:18:09.433Z,79.09
2022-08-24T10:19:09.697Z,78.35
2022-08-24T10:20:09.952Z,77.26
2022-08-24T10:21:10.227Z,77.36
2022-08-24T10:22:10.528Z,77.46
2022-08-24T10:23:10.809Z,77.95
2022-08-24T10:24:11.826Z,77.50
2022-08-24T10:25:11.350Z,77.20
2022-08-24T10:26:11.607Z,77.09
2022-08-24T10:27:11.890Z,76.93
2022-08-24T10:28:12.168Z,77.33
2022-08-24T10:29:12.431Z,77.53
2022-08-24T10:30:12.765Z,77.53
2022-08-24T10:31:13.333Z,77.53
2022-08-24T10:32:13.282Z,77.83
2022-08-24T10:33:13.543Z,78.13
2022-08-24T10:34:13.800Z,78.23
2022-08-24T10:35:14.523Z,78.73
2022-08-24T10:36:14.393Z,78.99
2022-08-24T10:37:14.646Z,78.69
2022-08-24T10:38:14.905Z,78.29
2022-08-24T10:39:15.226Z,77.83
2022-08-24T10:40:15.620Z,77.73
2022-08-24T10:41:15.798Z,77.13
2022-08-24T10:42:16.095Z,77.00
2022-08-24T10:43:16.446Z,77.20
2022-08-24T10:44:16.716Z,77.29
2022-08-24T10:45:17.027Z,77.39
2022-08-24T10:46:17.298Z,77.36
2022-08-24T10:47:17.561Z,77.06
2022-08-24T10:48:17.829Z,77.16
2022-08-24T10:49:18.121Z,76.66
2022-08-24T10:50:18.389Z,76.76
2022-08-24T10:51:18.649Z,76.26
2022-08-24T10:52:18.910Z,76.56
2022-08-24T10:53:19.191Z,76.56
2022-08-24T10:54:19.456Z,75.87
2022-08-24T10:55:19.742Z,76.06
2022-08-24T10:56:19.993Z,75.50
2022-08-24T10:57:20.247Z,75.90
2022-08-24T10:58:20.525Z,76.10
2022-08-24T10:59:20.833Z,76.10
2022-08-24T11:00:23.306Z,76.40
2022-08-24T11:01:21.429Z,76.70
2022-08-24T11:02:21.644Z,76.79
2022-08-24T11:03:22.201Z,76.50
2022-08-24T11:04:23.248Z,76.50
2022-08-24T11:05:22.567Z,76.79
2022-08-24T11:06:22.821Z,76.70
2022-08-24T11:07:23.117Z,76.60
2022-08-24T11:08:23.370Z,76.40
2022-08-24T11:09:23.654Z,76.20
2022-08-24T11:10:23.900Z,76.60
2022-08-24T11:11:24.279Z,76.79
2022-08-24T11:12:24.515Z,76.60
2022-08-24T11:13:24.761Z,76.56
2022-08-24T11:14:25.024Z,76.76
2022-08-24T11:15:25.322Z,75.76
2022-08-24T11:16:25.616Z,75.87
2022-08-24T11:17:25.896Z,75.96
2022-08-24T11:18:26.177Z,76.76
2022-08-24T11:19:27.167Z,76.56
2022-08-24T11:20:26.766Z,76.86
2022-08-24T11:21:27.067Z,76.06
2022-08-24T11:22:27.326Z,76.06
2022-08-24T11:23:31.577Z,76.36
2022-08-24T11:24:27.918Z,76.17
2022-08-24T11:25:28.178Z,76.26
2022-08-24T11:26:28.429Z,75.63
2022-08-24T11:27:28.711Z,75.43
2022-08-24T11:28:28.972Z,75.23
2022-08-24T11:29:29.270Z,75.23
2022-08-24T11:30:29.540Z,75.20
2022-08-24T11:31:33.819Z,74.80
2022-08-24T11:32:31.141Z,74.50
2022-08-24T11:33:30.463Z,73.70
2022-08-24T11:34:30.741Z,74.00
2022-08-24T11:35:31.822Z,73.27
2022-08-24T11:36:31.311Z,73.17
2022-08-24T11:37:32.333Z,73.97
2022-08-24T11:38:31.833Z,73.47
2022-08-24T11:39:32.165Z,73.67
2022-08-24T11:40:32.435Z,74.07
2022-08-24T11:41:32.706Z,73.57
2022-08-24T11:42:32.970Z,73.77
2022-08-24T11:43:34.027Z,73.27
2022-08-24T11:44:33.487Z,73.57
2022-08-24T11:45:33.750Z,73.50
2022-08-24T11:46:34.116Z,74.10
2022-08-24T11:47:34.262Z,74.10
2022-08-24T11:48:34.532Z,74.30
2022-08-24T11:49:34.820Z,73.90
2022-08-24T11:50:35.081Z,73.90
2022-08-24T11:51:35.363Z,74.07
2022-08-24T11:52:35.631Z,74.56
2022-08-24T11:54:36.155Z,73.37
2022-08-24T11:55:43.987Z,73.86
2022-08-24T11:56:37.756Z,72.67
2022-08-24T11:57:37.084Z,73.17
2022-08-24T11:58:37.370Z,72.87
2022-08-24T11:59:37.645Z,72.28
2022-08-24T12:00:37.903Z,72.47
2022-08-24T12:01:44.533Z,72.54
2022-08-24T12:02:39.613Z,72.44
2022-08-24T12:03:38.834Z,72.34
2022-08-24T12:04:39.090Z,72.34
2022-08-24T12:05:39.357Z,72.34
2022-08-24T12:06:39.619Z,72.44
2022-08-24T12:07:40.709Z,72.54
2022-08-24T12:08:40.165Z,72.44
2022-08-24T12:09:40.419Z,71.25
2022-08-24T12:10:40.699Z,71.48
2022-08-24T12:11:40.959Z,71.58
2022-08-24T12:12:41.227Z,72.28
2022-08-24T12:13:41.493Z,72.47
2022-08-24T12:14:41.750Z,72.17
2022-08-24T12:15:42.785Z,71.68
2022-08-24T12:16:42.316Z,71.38
2022-08-24T12:17:42.583Z,71.68
2022-08-24T12:18:42.834Z,72.38
2022-08-24T12:19:43.087Z,72.67
2022-08-24T12:20:43.346Z,72.28
2022-08-24T12:21:43.625Z,71.98
2022-08-24T12:22:43.885Z,72.08
2022-08-24T12:23:44.165Z,72.67
2022-08-24T12:24:44.410Z,71.88
2022-08-24T12:25:44.667Z,71.88
2022-08-24T12:26:44.918Z,72.21
2022-08-24T12:27:45.171Z,71.61
2022-08-24T12:28:45.444Z,72.11
2022-08-24T12:29:45.689Z,72.01
2022-08-24T12:30:45.930Z,72.41
2022-08-24T12:31:46.274Z,72.11
2022-08-24T12:32:47.171Z,72.55
2022-08-24T12:33:46.794Z,72.55
2022-08-24T12:34:49.759Z,72.64
2022-08-24T12:35:47.302Z,73.14
2022-08-24T12:36:47.554Z,73.24
2022-08-24T12:37:47.804Z,73.94
2022-08-24T12:38:48.066Z,72.85
2022-08-24T12:39:48.378Z,73.24
2022-08-24T12:40:48.620Z,72.74
2022-08-24T12:41:48.895Z,72.55
2022-08-24T12:42:52.263Z,72.55
2022-08-24T12:43:49.515Z,72.64
2022-08-24T12:44:50.706Z,72.94
2022-08-24T12:45:50.047Z,73.04
2022-08-24T12:46:50.326Z,72.85
2022-08-24T12:47:50.548Z,72.34
2022-08-24T12:48:50.817Z,72.44
2022-08-24T12:49:51.059Z,72.85
2022-08-24T12:50:51.331Z,72.44
2022-08-24T12:51:51.592Z,72.94
2022-08-24T12:52:51.848Z,73.14
2022-08-24T12:53:52.122Z,73.14
2022-08-24T12:54:52.370Z,72.34
2022-08-24T12:55:52.838Z,72.64
2022-08-24T12:56:52.891Z,73.14
2022-08-24T12:58:03.495Z,72.74
2022-08-24T12:58:55.162Z,72.94